^^
Saratoga-Weather Station Historical Data
Daily Summary for February 2, 2021 Units:  Metric    English   Both
Daily Weekly Monthly Yearly Custom
  High: Low: Average:
Temperature: 10.4 °C 6.9 °C 9.1 °C
Dew Point: 1.8 °C 1 °C 1.5 °C
Humidity: 68% 52% 59%
Wind Speed: 9.7km/h 1.4km/h 4.3km/h
Wind Gust: 14.5km/h - -
Wind- - WNW
Pressure: 1014.2 hPa 1012.9 hPa -
Precipitation: 0.0 mm    
Historical Graphs
 
 
Tabular Data for February 2, 2021
Time Temperature Dew Point Pressure Wind Wind Speed Wind Gust Humidity Rainfall Rate (Hourly) solar
00:02 10.4 °C 1 °C 1012.9 hPa West 1.4 km/h 11.3 km/h 52% 0.0 mm 0 W/m2
00:07 10.4 °C 1 °C 1012.9 hPa West 6.4 km/h 6.4 km/h 52% 0.0 mm 0 W/m2
00:12 10.4 °C 1.2 °C 1012.9 hPa North 3.2 km/h 6.4 km/h 53% 0.0 mm 0 W/m2
00:17 10.4 °C 1.2 °C 1012.9 hPa WNW 4.7 km/h 8 km/h 53% 0.0 mm 0 W/m2
00:22 10.4 °C 1.2 °C 1012.9 hPa NW 6.4 km/h 11.3 km/h 53% 0.0 mm 0 W/m2
00:27 10.3 °C 1.1 °C 1012.9 hPa WNW 3.2 km/h 4.8 km/h 53% 0.0 mm 0 W/m2
00:32 10.2 °C 1.3 °C 1013.2 hPa West 3.2 km/h 8 km/h 54% 0.0 mm 0 W/m2
00:37 10.1 °C 1.2 °C 1012.9 hPa WSW 3.2 km/h 6.4 km/h 54% 0.0 mm 0 W/m2
00:42 10.1 °C 1.2 °C 1013.2 hPa WNW 4.7 km/h 8 km/h 54% 0.0 mm 0 W/m2
00:47 10.1 °C 1.5 °C 1013.2 hPa West 4.7 km/h 6.4 km/h 55% 0.0 mm 0 W/m2
00:52 10 °C 1.4 °C 1013.2 hPa WNW 6.4 km/h 9.7 km/h 55% 0.0 mm 0 W/m2
00:57 9.9 °C 1.3 °C 1013.2 hPa SW 9.7 km/h 14.5 km/h 55% 0.0 mm 0 W/m2
01:02 9.9 °C 1.3 °C 1013.2 hPa WSW 4.7 km/h 6.4 km/h 55% 0.0 mm 0 W/m2
01:07 9.8 °C 1.2 °C 1013.2 hPa West 3.2 km/h 14.5 km/h 55% 0.0 mm 0 W/m2
01:12 9.8 °C 1.4 °C 1013.2 hPa WNW 3.2 km/h 3.2 km/h 56% 0.0 mm 0 W/m2
01:17 9.8 °C 1.4 °C 1013.2 hPa West 6.4 km/h 6.4 km/h 56% 0.0 mm 0 W/m2
01:22 9.8 °C 1.4 °C 1013.2 hPa WNW 3.2 km/h 6.4 km/h 56% 0.0 mm 0 W/m2
01:27 9.7 °C 1.3 °C 1013.2 hPa West 4.7 km/h 11.3 km/h 56% 0.0 mm 0 W/m2
01:32 9.7 °C 1.6 °C 1013.2 hPa WNW 6.4 km/h 6.4 km/h 57% 0.0 mm 0 W/m2
01:37 9.6 °C 1.2 °C 1013.2 hPa West 4.7 km/h 11.3 km/h 56% 0.0 mm 0 W/m2
01:42 9.6 °C 1.5 °C 1013.2 hPa WNW 3.2 km/h 9.7 km/h 57% 0.0 mm 0 W/m2
01:47 9.6 °C 1.5 °C 1013.5 hPa WNW 6.4 km/h 11.3 km/h 57% 0.0 mm 0 W/m2
01:52 9.5 °C 1.6 °C 1013.5 hPa West 4.7 km/h 4.8 km/h 58% 0.0 mm 0 W/m2
01:57 9.4 °C 1.6 °C 1013.5 hPa West 3.2 km/h 9.7 km/h 58% 0.0 mm 0 W/m2
02:02 9.3 °C 1.5 °C 1013.5 hPa WNW 3.2 km/h 4.8 km/h 58% 0.0 mm 0 W/m2
02:07 9.3 °C 1.5 °C 1013.5 hPa WSW 3.2 km/h 6.4 km/h 58% 0.0 mm 0 W/m2
02:12 9.3 °C 1.7 °C 1013.5 hPa WNW 3.2 km/h 9.7 km/h 59% 0.0 mm 0 W/m2
02:17 9.2 °C 1.6 °C 1013.5 hPa West 4.7 km/h 11.3 km/h 59% 0.0 mm 0 W/m2
02:22 9.2 °C 1.6 °C 1013.5 hPa West 3.2 km/h 9.7 km/h 59% 0.0 mm 0 W/m2
02:27 9.1 °C 1.5 °C 1013.5 hPa West 4.7 km/h 8 km/h 59% 0.0 mm 0 W/m2
02:32 9 °C 1.6 °C 1013.5 hPa NW 7.9 km/h 12.9 km/h 60% 0.0 mm 0 W/m2
02:37 8.9 °C 1.6 °C 1013.5 hPa WNW 4.7 km/h 8 km/h 60% 0.0 mm 0 W/m2
02:42 8.8 °C 1.5 °C 1013.5 hPa WSW 3.2 km/h 6.4 km/h 60% 0.0 mm 0 W/m2
02:47 8.8 °C 1.7 °C 1013.5 hPa WNW 3.2 km/h 6.4 km/h 61% 0.0 mm 0 W/m2
02:52 8.7 °C 1.6 °C 1013.5 hPa West 4.7 km/h 6.4 km/h 61% 0.0 mm 0 W/m2
02:57 8.6 °C 1.5 °C 1013.5 hPa WNW 6.4 km/h 6.4 km/h 61% 0.0 mm 0 W/m2
03:02 8.6 °C 1.7 °C 1013.5 hPa NW 4.7 km/h 6.4 km/h 62% 0.0 mm 0 W/m2
03:07 8.4 °C 1.5 °C 1013.5 hPa West 6.4 km/h 8 km/h 62% 0.0 mm 0 W/m2
03:12 8.4 °C 1.5 °C 1013.5 hPa WSW 3.2 km/h 6.4 km/h 62% 0.0 mm 0 W/m2
03:17 8.3 °C 1.4 °C 1013.5 hPa West 6.4 km/h 6.4 km/h 62% 0.0 mm 0 W/m2
03:22 8.2 °C 1.6 °C 1013.5 hPa West 3.2 km/h 8 km/h 63% 0.0 mm 0 W/m2
03:27 8.2 °C 1.8 °C 1013.5 hPa West 4.7 km/h 9.7 km/h 64% 0.0 mm 0 W/m2
03:32 8.1 °C 1.7 °C 1013.5 hPa West 3.2 km/h 3.2 km/h 64% 0.0 mm 0 W/m2
03:37 8 °C 1.6 °C 1013.5 hPa West 4.7 km/h 4.8 km/h 64% 0.0 mm 0 W/m2
03:42 7.9 °C 1.7 °C 1013.5 hPa WNW 3.2 km/h 11.3 km/h 65% 0.0 mm 0 W/m2
03:47 7.7 °C 1.5 °C 1013.9 hPa WNW 4.7 km/h 6.4 km/h 65% 0.0 mm 0 W/m2
03:52 7.6 °C 1.7 °C 1013.9 hPa West 4.7 km/h 11.3 km/h 66% 0.0 mm 0 W/m2
03:57 7.4 °C 1.5 °C 1013.9 hPa WNW 3.2 km/h 4.8 km/h 66% 0.0 mm 0 W/m2
04:02 7.4 °C 1.5 °C 1013.9 hPa West 3.2 km/h 4.8 km/h 66% 0.0 mm 0 W/m2
04:07 7.3 °C 1.6 °C 1013.9 hPa WNW 1.4 km/h 9.7 km/h 67% 0.0 mm 0 W/m2
04:12 7.2 °C 1.5 °C 1013.9 hPa NW 3.2 km/h 6.4 km/h 67% 0.0 mm 0 W/m2
04:17 7.1 °C 1.6 °C 1014.2 hPa WNW 3.2 km/h 6.4 km/h 68% 0.0 mm 0 W/m2
04:22 6.9 °C 1.4 °C 1014.2 hPa West 3.2 km/h 6.4 km/h 68% 0.0 mm 0 W/m2
Juneau County Weather
Compliments of Weather Underground - 2 mb